Danville, Canada
Current Conditions -  °F | °C
As of 5:00 AM on Saturday 20 Dec 2014 (Local Time) from CYSC Reporting Station
Overcast Overcast  
Wind Chill: -4°   Ceiling: 400
Heat Index:   Visibility: 9mi
Dew Point:   Wind: 5mph
Humidity: 92%   Direction: 100°E
Pressure: 30.26"   Gusts: NA
Location:  45.78°N, 72.02°W
Report Text: CYSC 201000Z AUTO 10004KT 9SM OVC004 M15/M16 A3026 RMK SLP266
Loading
Personal Weather Stations






























Interactive Weather Map New forecast layout! Learn more

10-Day Weather Forecast

Advertisements
Track Severe Weather on mobile